Impacts METAR Board
IDs:

KSAN - San Diego Intl Arpt, CA, US

Updated at: 2000 UTC 21 Sep 2021
Potential Impact None Slight Moderate High
Time 21/08Z 21/09Z 21/10Z 21/11Z 21/12Z 21/13Z 21/14Z 21/15Z 21/16Z 21/17Z 21/18Z 21/19Z 21/20Z
Temp68 67 67 66 65 66 65 70 76 82 83 82 81
Dewpt61 61 60 60 59 59 59 61 61 63 62 62 63
Altim30.01 30.01 30.01 30.00 30.01 30.02 30.04 30.06 30.06 30.06 30.06 30.05 30.04
VIS10 10 10 10 10 10 8 10 10 10 10 10 10
CIG-- -- -- -- -- -- -- -- -- -- -- -- --
CoverCLRCLRCLRCLRCLRCLRFEWCLRCLRFEWFEWFEWFEW
FltCatVFRVFRVFRVFRVFRVFRVFRVFRVFRVFRVFRVFRVFR
WX--------------------------
WDir0035032033036000340300340290290
WSpd0 0 4 3 3 3 0 0 3 3 5 9 9
WGst-- -- -- -- -- -- -- -- -- -- -- -- --
Raw hourly METARs
KSAN 210751Z 00000KT 10SM CLR 20/16 A3001 RMK AO2 SLP161 T02000161 402440167
KSAN 210851Z 00000KT 10SM CLR 19/16 A3001 RMK AO2 SLP162 T01940161 51002
KSAN 210951Z 35004KT 10SM CLR 19/16 A3001 RMK AO2 SLP160 T01940156
KSAN 211051Z 32003KT 10SM CLR 19/16 A3000 RMK AO2 SLP160 T01890156
KSAN 211151Z 33003KT 10SM CLR 18/15 A3001 RMK AO2 SLP161 T01830150 10206 20183 55001
KSAN 211251Z 36003KT 10SM CLR 19/15 A3002 RMK AO2 SLP166 T01890150
KSAN 211351Z 00000KT 8SM FEW200 18/15 A3004 RMK AO2 SLP171 T01830150
KSAN 211451Z 00000KT 10SM CLR 21/16 A3006 RMK AO2 SLP177 T02110161 53016
KSAN 211551Z 34003KT 10SM CLR 24/16 A3006 RMK AO2 SLP177 T02440161
KSAN 211651Z 30003KT 10SM FEW250 28/17 A3006 RMK AO2 SLP180 T02780172
KSAN 211751Z 34005KT 10SM FEW040 FEW250 28/17 A3006 RMK AO2 SLP179 T02830167 10289 20183 50002
KSAN 211851Z 29009KT 10SM FEW040 28/17 A3005 RMK AO2 SLP175 T02780167
KSAN 211951Z 29009KT 10SM FEW040 27/17 A3004 RMK AO2 SLP172 T02720172



Page loaded:  20:10 UTC  |   01:10 PM Pacific  |   02:10 PM Mountain  |   03:10 PM Central  |   04:10 PM Eastern

 

ADVISORIES

FORECASTS

FORECASTS

OBSERVATIONS

USER TOOLS

ABOUT US